Time;durP1;ratioP1;P1;durP2;ratioP2;P2;SDS_P1;SDS_P2;PMS_P1;PMS_P2;Temp;Humidity;BMP_temperature;BMP_pressure;BME280_temperature;BME280_humidity;BME280_pressure;Samples;Min_cycle;Max_cycle;Signal;HPM_P1;HPM_P2
2021/05/23 00:00:18;;;;;;;15.15;8.30;;;;;;;8.20;82.52;99679.47;8070063;35;21477;-73
2021/05/23 00:05:25;;;;;;;14.98;9.15;;;;;;;8.36;81.95;99669.19;8071686;35;20166;-73
2021/05/23 00:10:30;;;;;;;15.20;9.27;;;;;;;8.23;82.45;99678.34;8065670;35;20205;-73
2021/05/23 00:15:36;;;;;;;16.10;9.35;;;;;;;8.31;82.38;99686.59;8058550;35;20712;-73
2021/05/23 00:20:41;;;;;;;18.77;8.57;;;;;;;8.01;83.09;99693.50;8058804;35;20593;-73
2021/05/23 00:25:45;;;;;;;14.45;8.85;;;;;;;8.25;82.57;99692.44;8070394;35;20465;-73
2021/05/23 00:30:47;;;;;;;17.90;9.43;;;;;;;8.13;82.76;99699.66;8066179;35;20178;-73
2021/05/23 00:35:51;;;;;;;19.48;10.52;;;;;;;8.36;82.28;99695.09;8058889;35;20501;-73
2021/05/23 00:40:54;;;;;;;18.02;10.32;;;;;;;8.24;82.58;99693.44;8056851;35;20610;-72
2021/05/23 00:45:56;;;;;;;17.02;10.48;;;;;;;8.01;83.36;99695.31;8056075;35;20158;-73
2021/05/23 00:51:00;;;;;;;15.07;10.27;;;;;;;8.30;82.47;99693.78;8053483;35;20177;-73
2021/05/23 00:56:04;;;;;;;20.10;10.30;;;;;;;8.20;83.08;99694.66;8051678;35;20453;-73
2021/05/23 01:01:34;;;;;;;15.60;9.90;;;;;;;8.17;82.96;99693.06;8048777;35;20163;-73
2021/05/23 01:06:38;;;;;;;14.00;10.00;;;;;;;8.12;83.31;99700.66;8047564;35;20481;-73
2021/05/23 01:12:25;;;;;;;16.70;9.00;;;;;;;8.01;83.94;99706.88;8047619;35;20442;-73
2021/05/23 01:17:44;;;;;;;12.57;8.73;;;;;;;8.00;83.26;99704.31;8027092;35;20498;-73
2021/05/23 01:22:59;;;;;;;14.02;8.48;;;;;;;8.05;83.62;99710.97;8050454;35;20194;-73
2021/05/23 01:28:03;;;;;;;15.57;8.55;;;;;;;8.05;83.44;99713.66;8030443;35;20447;-73
2021/05/23 01:33:07;;;;;;;14.63;8.75;;;;;;;7.97;83.43;99707.22;8053665;35;21020;-73
2021/05/23 01:38:13;;;;;;;16.15;9.02;;;;;;;7.93;83.46;99714.66;8053245;35;20470;-73
2021/05/23 01:43:18;;;;;;;16.23;9.23;;;;;;;8.02;83.47;99724.59;8053538;35;20907;-73
2021/05/23 01:48:21;;;;;;;17.13;10.00;;;;;;;7.75;84.44;99718.81;8056133;35;20256;-73
2021/05/23 01:53:24;;;;;;;20.55;11.27;;;;;;;7.62;85.14;99730.47;8066287;35;20471;-73
2021/05/23 01:58:28;;;;;;;19.23;11.55;;;;;;;7.53;86.29;99723.19;8064989;35;20471;-73
2021/05/23 02:03:31;;;;;;;16.88;9.32;;;;;;;7.75;85.34;99718.81;8066233;35;20158;-73
2021/05/23 02:08:34;;;;;;;17.35;11.00;;;;;;;7.78;85.55;99730.09;8056708;35;20985;-73
2021/05/23 02:13:39;;;;;;;17.52;10.95;;;;;;;7.80;85.13;99733.50;8055637;35;21441;-73
2021/05/23 02:18:43;;;;;;;14.52;10.43;;;;;;;7.89;85.09;99731.91;8053551;35;20258;-73
2021/05/23 02:23:49;;;;;;;16.23;10.00;;;;;;;7.73;85.32;99741.19;8054325;35;20198;-73
2021/05/23 02:28:54;;;;;;;16.83;9.23;;;;;;;8.03;84.76;99731.66;8030084;35;20613;-73
2021/05/23 02:33:57;;;;;;;10.18;6.57;;;;;;;7.83;84.84;99743.09;8051239;35;20988;-73
2021/05/23 02:39:00;;;;;;;10.07;5.65;;;;;;;7.88;84.64;99739.09;8053058;35;20673;-73
2021/05/23 02:44:04;;;;;;;12.77;5.78;;;;;;;7.78;84.50;99746.13;8051444;35;20227;-73
2021/05/23 02:49:06;;;;;;;11.38;6.60;;;;;;;7.73;84.77;99751.88;8050520;35;20151;-73
2021/05/23 02:54:09;;;;;;;9.30;5.80;;;;;;;7.73;84.93;99748.31;8048656;35;20472;-72
2021/05/23 02:59:13;;;;;;;12.15;6.90;;;;;;;7.77;84.32;99755.16;8028345;35;20429;-73
2021/05/23 03:04:15;;;;;;;14.60;7.40;;;;;;;7.80;84.12;99757.56;8051867;35;20221;-72
2021/05/23 03:09:18;;;;;;;12.95;7.32;;;;;;;7.78;84.55;99753.31;8051761;35;20461;-73
2021/05/23 03:14:22;;;;;;;11.57;7.15;;;;;;;7.83;84.00;99760.00;8053603;35;20493;-73
2021/05/23 03:19:24;;;;;;;14.63;8.93;;;;;;;7.67;84.27;99760.34;8047438;35;20198;-72
2021/05/23 03:24:27;;;;;;;14.88;8.20;;;;;;;7.64;84.26;99770.44;8046743;35;20543;-72
2021/05/23 03:29:30;;;;;;;15.30;8.43;;;;;;;7.76;84.07;99771.28;8046051;35;20470;-72
2021/05/23 03:34:33;;;;;;;15.82;8.65;;;;;;;7.67;84.41;99779.06;8048091;35;20310;-72
2021/05/23 03:39:36;;;;;;;17.35;8.50;;;;;;;7.68;84.62;99783.47;8052220;35;20473;-72
2021/05/23 03:44:39;;;;;;;16.10;8.35;;;;;;;7.65;84.16;99790.84;8054575;35;21483;-72
2021/05/23 03:49:42;;;;;;;16.83;8.82;;;;;;;7.60;84.05;99788.56;8052754;35;21062;-73
2021/05/23 03:54:44;;;;;;;14.38;8.07;;;;;;;7.59;84.08;99804.69;8045750;35;20210;-72
2021/05/23 03:59:48;;;;;;;15.10;8.05;;;;;;;7.57;84.27;99803.97;8043965;35;20321;-72
2021/05/23 04:04:56;;;;;;;14.75;8.23;;;;;;;7.52;84.47;99815.03;8042302;35;21023;-72
2021/05/23 04:09:59;;;;;;;17.90;8.32;;;;;;;7.45;84.67;99816.47;8043435;35;21146;-72
2021/05/23 04:15:04;;;;;;;16.48;8.80;;;;;;;7.60;83.98;99822.47;8043042;35;20159;-72
2021/05/23 04:20:10;;;;;;;15.40;8.38;;;;;;;7.54;84.35;99831.78;8041160;35;20182;-72
2021/05/23 04:25:15;;;;;;;19.10;8.65;;;;;;;7.67;84.16;99837.03;8041339;35;20188;-72
2021/05/23 04:30:22;;;;;;;18.38;9.88;;;;;;;7.57;84.08;99847.59;8043143;35;20151;-72
2021/05/23 04:35:25;;;;;;;18.63;9.88;;;;;;;7.50;84.07;99841.84;8043448;35;21043;-72
2021/05/23 04:40:29;;;;;;;19.63;10.38;;;;;;;7.43;85.00;99847.78;8046034;35;20431;-72
2021/05/23 04:45:33;;;;;;;20.30;9.88;;;;;;;7.68;84.31;99847.63;8048738;35;20450;-72
2021/05/23 04:50:36;;;;;;;18.58;9.73;;;;;;;7.72;83.97;99853.56;8033922;35;20453;-72
2021/05/23 04:55:39;;;;;;;21.05;10.13;;;;;;;7.74;84.44;99865.00;8054184;35;20459;-72
2021/05/23 05:00:43;;;;;;;20.52;10.07;;;;;;;7.76;84.21;99873.72;8031404;35;20486;-72
2021/05/23 05:05:45;;;;;;;15.68;7.82;;;;;;;7.70;84.33;99882.22;8049562;35;21524;-72
2021/05/23 05:10:52;;;;;;;21.80;9.25;;;;;;;7.84;84.83;99886.50;8027848;35;20456;-72
2021/05/23 05:15:56;;;;;;;18.50;9.43;;;;;;;7.94;84.51;99898.22;8043698;35;21247;-72
2021/05/23 05:20:58;;;;;;;16.40;8.88;;;;;;;8.02;84.44;99906.50;8021281;35;20178;-72
2021/05/23 05:26:02;;;;;;;16.45;8.73;;;;;;;8.07;84.59;99916.84;8040992;35;20457;-72
2021/05/23 05:31:06;;;;;;;15.10;8.70;;;;;;;8.13;84.48;99917.19;8040747;35;20186;-72
2021/05/23 05:36:09;;;;;;;15.95;8.63;;;;;;;8.27;84.30;99918.78;8042465;35;20447;-71
2021/05/23 05:41:12;;;;;;;15.52;8.80;;;;;;;8.34;84.45;99914.66;8046843;35;21208;-71
2021/05/23 05:46:16;;;;;;;19.75;9.52;;;;;;;8.01;84.01;99928.88;8046679;35;20163;-71
2021/05/23 05:51:19;;;;;;;15.98;8.27;;;;;;;8.07;83.97;99936.41;8048102;35;20302;-71
2021/05/23 05:56:21;;;;;;;17.08;8.75;;;;;;;8.09;84.08;99936.28;8050842;35;20177;-71
2021/05/23 06:01:25;;;;;;;16.75;9.38;;;;;;;8.17;83.71;99945.44;8052491;35;20976;-71
2021/05/23 06:06:28;;;;;;;14.30;7.70;;;;;;;8.09;84.59;99949.66;8054532;35;20745;-71
2021/05/23 06:11:30;;;;;;;14.63;7.43;;;;;;;8.32;84.75;99943.38;8072784;35;20147;-71
2021/05/23 06:16:34;;;;;;;15.13;7.97;;;;;;;8.25;84.05;99952.00;8054880;35;20465;-71
2021/05/23 06:21:36;;;;;;;13.57;7.53;;;;;;;8.24;84.25;99961.00;8053177;35;20198;-71
2021/05/23 06:26:39;;;;;;;14.93;7.50;;;;;;;8.46;83.85;99955.69;8060174;35;20146;-72
2021/05/23 06:31:43;;;;;;;13.75;7.18;;;;;;;8.11;84.00;99971.78;8060122;35;20470;-71
2021/05/23 06:36:45;;;;;;;12.57;6.82;;;;;;;8.38;83.91;99976.81;8051401;35;20175;-72
2021/05/23 06:41:48;;;;;;;13.13;7.43;;;;;;;8.48;83.62;99977.84;8018042;35;20440;-71
2021/05/23 06:46:52;;;;;;;12.98;6.95;;;;;;;8.39;83.27;99986.53;8022060;35;20493;-71
2021/05/23 06:51:55;;;;;;;12.55;6.70;;;;;;;8.29;83.34;99998.97;8020456;35;20693;-72
2021/05/23 06:56:57;;;;;;;13.02;6.63;;;;;;;8.10;83.75;100016.44;8014289;35;20186;-72
2021/05/23 07:02:01;;;;;;;12.95;6.70;;;;;;;8.15;83.44;100010.72;8027476;35;20665;-73
2021/05/23 07:07:04;;;;;;;13.00;6.80;;;;;;;8.01;84.38;100018.94;8023730;35;20429;-73
2021/05/23 07:12:09;;;;;;;13.25;7.30;;;;;;;8.57;84.43;100019.94;8025807;35;20264;-74
2021/05/23 07:17:12;;;;;;;12.90;6.60;;;;;;;8.65;83.82;100029.22;8023663;35;20204;-73
2021/05/23 07:22:15;;;;;;;14.57;7.15;;;;;;;8.23;83.89;100034.19;8016057;35;20493;-73
2021/05/23 07:27:18;;;;;;;12.13;6.75;;;;;;;8.17;83.75;100039.06;8052768;35;20444;-73
2021/05/23 07:32:22;;;;;;;9.90;6.30;;;;;;;8.02;83.85;100045.59;8049545;35;20472;-73
2021/05/23 07:37:25;;;;;;;11.32;6.32;;;;;;;8.08;83.77;100052.28;8035398;35;20251;-73
2021/05/23 07:42:28;;;;;;;11.30;6.90;;;;;;;8.30;84.23;100030.94;8021760;35;20516;-73
2021/05/23 07:47:31;;;;;;;12.13;6.22;;;;;;;8.72;83.92;100049.16;8023384;35;20562;-73
2021/05/23 07:52:35;;;;;;;11.52;5.95;;;;;;;8.97;84.49;100058.81;8029304;35;20490;-72
2021/05/23 07:57:38;;;;;;;12.13;6.47;;;;;;;9.04;83.39;100063.53;8036255;35;20161;-72
2021/05/23 08:02:42;;;;;;;9.52;6.30;;;;;;;8.74;83.50;100056.09;8026934;35;20455;-72
2021/05/23 08:07:45;;;;;;;10.98;5.95;;;;;;;8.63;83.94;100066.81;8036758;35;20478;-72
2021/05/23 08:12:47;;;;;;;15.45;7.15;;;;;;;8.69;84.31;100074.34;8029219;35;20192;-72
2021/05/23 08:17:53;;;;;;;12.10;6.90;;;;;;;8.80;84.09;100090.47;8031713;35;20389;-72
2021/05/23 08:22:56;;;;;;;10.30;6.22;;;;;;;8.81;84.17;100084.13;8032517;35;20200;-72
2021/05/23 08:27:59;;;;;;;12.77;7.00;;;;;;;8.99;84.21;100087.16;8037868;35;21069;-72
2021/05/23 08:33:02;;;;;;;9.43;5.53;;;;;;;8.90;84.08;100098.59;8081956;35;20498;-72
2021/05/23 08:38:06;;;;;;;6.93;4.80;;;;;;;8.82;83.28;100104.56;8088714;35;20143;-71
2021/05/23 08:43:10;;;;;;;9.68;6.47;;;;;;;9.10;83.83;100109.56;8091491;35;20190;-72
2021/05/23 08:48:17;;;;;;;7.30;4.72;;;;;;;9.16;83.35;100106.41;8100351;35;20192;-71
2021/05/23 08:53:21;;;;;;;8.52;5.10;;;;;;;9.72;84.11;100106.34;8086198;35;20227;-71
2021/05/23 08:58:24;;;;;;;7.72;4.35;;;;;;;10.14;82.92;100125.25;8083536;35;20808;-71
2021/05/23 09:03:29;;;;;;;8.00;4.70;;;;;;;9.57;81.18;100134.41;8081008;35;20282;-71
2021/05/23 09:08:32;;;;;;;6.60;4.40;;;;;;;9.45;82.31;100142.47;8038816;35;20340;-71
2021/05/23 09:13:37;;;;;;;6.45;4.15;;;;;;;8.93;80.63;100151.09;8029567;35;20432;-71
2021/05/23 09:18:43;;;;;;;7.47;4.10;;;;;;;8.40;82.67;100156.91;8022712;35;20195;-73
2021/05/23 09:23:49;;;;;;;7.82;4.13;;;;;;;8.35;83.94;100159.06;8025732;35;20183;-73
2021/05/23 09:28:54;;;;;;;10.85;5.28;;;;;;;8.40;84.34;100167.59;8024572;35;20158;-73
2021/05/23 09:33:58;;;;;;;11.27;5.30;;;;;;;8.52;83.78;100174.72;8022717;35;20163;-72
2021/05/23 09:39:03;;;;;;;6.78;4.45;;;;;;;8.29;83.77;100184.47;7988992;35;20233;-73
2021/05/23 09:44:15;;;;;;;9.32;6.35;;;;;;;8.11;84.35;100184.00;8022697;35;20163;-72
2021/05/23 09:49:19;;;;;;;11.07;6.90;;;;;;;7.82;84.88;100174.59;8036439;35;21111;-72
2021/05/23 09:54:24;;;;;;;12.77;7.20;;;;;;;7.72;84.90;100201.13;8020102;35;20968;-72
2021/05/23 09:59:29;;;;;;;16.27;9.88;;;;;;;7.90;85.17;100209.66;8033071;35;20151;-72
2021/05/23 10:04:35;;;;;;;14.90;9.52;;;;;;;8.35;86.45;100207.22;8069528;35;20175;-72
2021/05/23 10:09:39;;;;;;;20.30;9.45;;;;;;;8.93;84.05;100213.56;8070594;35;20238;-72
2021/05/23 10:14:42;;;;;;;16.00;9.02;;;;;;;8.29;83.68;100207.69;8060126;35;20139;-72
2021/05/23 10:19:47;;;;;;;18.50;10.82;;;;;;;8.09;84.08;100236.78;8053260;35;20457;-72
2021/05/23 10:24:54;;;;;;;20.80;9.53;;;;;;;7.60;84.95;100251.00;8051247;35;20465;-72
2021/05/23 10:29:58;;;;;;;16.02;10.48;;;;;;;8.16;84.96;100248.72;8055753;35;20150;-72
2021/05/23 10:35:15;;;;;;;20.73;9.00;;;;;;;9.84;83.89;100238.63;8061749;35;21903;-72
2021/05/23 10:40:21;;;;;;;19.20;11.70;;;;;;;10.98;81.43;100236.34;8057777;35;21041;-73
2021/05/23 10:45:27;;;;;;;18.13;11.60;;;;;;;11.07;81.55;100245.44;8058299;35;20476;-72
2021/05/23 10:50:33;;;;;;;17.00;11.57;;;;;;;10.77;77.47;100239.00;8074188;35;20549;-72
2021/05/23 10:55:47;;;;;;;13.30;10.07;;;;;;;10.04;77.58;100242.41;8025021;35;20453;-72
2021/05/23 11:00:52;;;;;;;16.85;9.88;;;;;;;9.75;77.38;100234.84;8024969;35;20947;-71
2021/05/23 11:06:03;;;;;;;19.60;10.95;;;;;;;9.70;78.08;100237.88;8024720;35;20284;-72
2021/05/23 11:11:08;;;;;;;16.30;11.50;;;;;;;11.68;77.47;100248.25;8011858;35;20550;-72
2021/05/23 11:16:15;;;;;;;19.10;12.27;;;;;;;12.07;78.26;100237.63;8020100;35;20496;-72
2021/05/23 11:21:18;;;;;;;13.77;9.70;;;;;;;12.11;74.69;100240.88;8007101;35;20169;-72
2021/05/23 11:26:23;;;;;;;16.05;10.02;;;;;;;13.47;79.14;100239.06;8005542;35;20136;-72
2021/05/23 11:31:28;;;;;;;14.07;7.05;;;;;;;14.03;65.93;100239.13;8006161;35;20195;-72
2021/05/23 11:36:33;;;;;;;7.47;4.25;;;;;;;12.19;64.27;100241.03;8004212;35;20194;-72
2021/05/23 11:41:40;;;;;;;5.28;2.28;;;;;;;11.66;57.90;100223.31;8006116;35;20492;-72
2021/05/23 11:46:45;;;;;;;4.15;2.17;;;;;;;12.03;56.89;100233.50;8003633;35;21404;-72
2021/05/23 11:51:49;;;;;;;3.40;2.03;;;;;;;13.04;52.31;100236.88;8016778;35;20219;-72
2021/05/23 11:56:52;;;;;;;4.55;2.10;;;;;;;14.30;52.09;100231.00;8017023;35;20533;-72
2021/05/23 12:01:55;;;;;;;2.88;1.63;;;;;;;14.72;44.23;100225.03;8017723;35;20155;-72
2021/05/23 12:07:00;;;;;;;2.58;1.63;;;;;;;13.86;44.74;100225.44;8019867;35;20176;-72
2021/05/23 12:12:04;;;;;;;2.92;1.90;;;;;;;14.50;45.07;100220.09;8016557;35;20566;-73
2021/05/23 12:17:09;;;;;;;3.78;1.88;;;;;;;15.42;43.26;100232.38;8020210;35;20199;-72
2021/05/23 12:22:13;;;;;;;4.32;2.03;;;;;;;15.23;43.06;100249.63;7995048;35;20196;-72
2021/05/23 12:27:27;;;;;;;3.88;2.22;;;;;;;14.98;42.99;100235.91;8012726;35;20715;-72
2021/05/23 12:32:40;;;;;;;2.95;1.60;;;;;;;15.18;44.40;100228.44;7983368;35;20229;-71
2021/05/23 12:37:51;;;;;;;4.60;1.63;;;;;;;15.54;43.95;100231.06;8003203;35;20379;-71
2021/05/23 12:43:08;;;;;;;4.25;2.08;;;;;;;14.99;42.52;100234.03;8019148;35;20205;-72
2021/05/23 12:48:12;;;;;;;1.38;1.23;;;;;;;14.26;41.68;100251.22;8049626;35;20491;-71
2021/05/23 12:53:24;;;;;;;3.42;1.42;;;;;;;14.87;39.48;100228.03;8048744;35;20482;-72
2021/05/23 12:58:27;;;;;;;2.55;1.40;;;;;;;15.66;39.99;100237.03;8017848;35;21094;-71
2021/05/23 13:03:30;;;;;;;1.63;1.30;;;;;;;15.28;38.87;100236.47;7997792;35;20239;-72
2021/05/23 13:08:34;;;;;;;2.53;1.50;;;;;;;15.56;38.29;100237.19;7997295;35;20145;-71
2021/05/23 13:13:42;;;;;;;4.25;1.90;;;;;;;15.67;36.90;100269.41;7998903;35;20464;-72
2021/05/23 13:18:59;;;;;;;3.35;1.50;;;;;;;14.45;41.22;100263.78;8019533;35;20171;-72
2021/05/23 13:24:04;;;;;;;3.95;1.77;;;;;;;14.01;42.90;100249.22;8001080;35;20156;-72
2021/05/23 13:29:07;;;;;;;3.13;1.52;;;;;;;14.06;41.60;100255.88;8001498;35;20434;-72
2021/05/23 13:34:10;;;;;;;3.67;1.63;;;;;;;15.74;38.65;100261.47;7977931;35;20453;-72
2021/05/23 13:39:15;;;;;;;2.42;1.30;;;;;;;14.81;39.22;100269.22;8047176;35;20444;-72
2021/05/23 13:44:18;;;;;;;1.88;1.38;;;;;;;13.00;42.91;100298.31;8049488;35;20444;-71
2021/05/23 13:49:21;;;;;;;1.65;1.45;;;;;;;12.56;44.31;100281.69;8048895;35;20977;-71
2021/05/23 13:54:25;;;;;;;3.30;2.22;;;;;;;13.10;44.82;100276.72;8049859;35;20451;-71
2021/05/23 13:59:28;;;;;;;3.60;2.08;;;;;;;14.73;40.50;100270.00;8048340;35;20472;-71
2021/05/23 14:04:31;;;;;;;5.35;2.53;;;;;;;16.60;39.42;100265.91;8051215;35;21132;-71
2021/05/23 14:09:35;;;;;;;3.47;1.50;;;;;;;16.42;37.03;100259.75;8058639;35;21155;-71
2021/05/23 14:14:38;;;;;;;4.57;1.30;;;;;;;14.86;41.10;100274.16;8058422;35;20562;-71
2021/05/23 14:19:40;;;;;;;1.80;1.50;;;;;;;14.27;42.52;100271.84;8057700;35;20151;-71
2021/05/23 14:24:45;;;;;;;3.38;1.88;;;;;;;15.37;40.34;100281.53;8058646;35;20455;-72
2021/05/23 14:29:47;;;;;;;2.30;1.58;;;;;;;15.06;40.67;100264.88;8058613;35;20159;-72
2021/05/23 14:34:50;;;;;;;2.88;1.50;;;;;;;14.14;41.56;100279.44;8036563;35;20447;-72
2021/05/23 14:39:53;;;;;;;2.33;1.58;;;;;;;15.53;40.27;100280.81;8034234;35;20183;-72
2021/05/23 14:44:56;;;;;;;2.93;1.70;;;;;;;17.03;36.61;100275.63;8050230;35;20986;-72
2021/05/23 14:49:59;;;;;;;3.72;1.70;;;;;;;16.36;36.69;100278.34;8047741;35;20282;-72
2021/05/23 14:55:07;;;;;;;5.35;1.88;;;;;;;16.30;36.33;100229.41;8048474;35;20163;-72
2021/05/23 15:00:12;;;;;;;1.90;1.67;;;;;;;13.95;40.26;100277.69;8049380;35;20352;-72
2021/05/23 15:05:15;;;;;;;3.10;1.90;;;;;;;15.68;38.32;100259.41;8027389;35;20429;-72
2021/05/23 15:10:19;;;;;;;8.95;1.67;;;;;;;15.33;35.41;100271.16;8047556;35;20442;-72
2021/05/23 15:15:24;;;;;;;2.97;1.90;;;;;;;16.12;35.70;100268.25;8052667;35;20209;-72
2021/05/23 15:20:27;;;;;;;3.53;1.95;;;;;;;16.41;34.76;100274.31;8054900;35;20510;-71
2021/05/23 15:25:31;;;;;;;2.92;2.10;;;;;;;15.58;36.15;100272.22;8037025;35;20603;-72
2021/05/23 15:30:37;;;;;;;2.78;1.58;;;;;;;15.63;35.12;100286.97;8048793;35;21487;-71
2021/05/23 15:35:40;;;;;;;2.80;1.83;;;;;;;15.59;36.22;100291.00;7994520;35;20470;-71
2021/05/23 15:40:43;;;;;;;2.72;1.75;;;;;;;15.64;35.41;100269.72;8017435;35;20459;-72
2021/05/23 15:45:46;;;;;;;4.05;1.80;;;;;;;16.22;37.13;100270.84;8008041;35;20429;-71
2021/05/23 15:50:49;;;;;;;2.83;1.70;;;;;;;15.73;36.46;100267.06;8016320;35;20475;-72
2021/05/23 15:55:52;;;;;;;2.13;1.63;;;;;;;15.24;37.09;100257.56;7998207;35;20188;-72
2021/05/23 16:00:55;;;;;;;2.88;2.00;;;;;;;15.88;36.01;100270.88;8019261;35;20488;-72
2021/05/23 16:05:58;;;;;;;6.78;2.25;;;;;;;16.15;35.08;100267.06;8007803;35;21063;-72
2021/05/23 16:11:01;;;;;;;3.10;1.60;;;;;;;16.01;34.89;100262.28;7985029;35;20148;-72
2021/05/23 16:16:05;;;;;;;2.20;1.77;;;;;;;16.46;36.18;100266.56;8004954;35;20515;-72
2021/05/23 16:21:11;;;;;;;2.60;2.00;;;;;;;16.02;35.43;100258.56;8047883;35;20207;-72
2021/05/23 16:26:15;;;;;;;4.63;1.73;;;;;;;15.35;36.44;100251.09;8067411;35;20470;-72
2021/05/23 16:31:18;;;;;;;4.15;1.77;;;;;;;15.61;36.57;100261.06;8069242;35;20701;-72
2021/05/23 16:36:20;;;;;;;4.22;1.65;;;;;;;15.38;35.91;100267.00;8068997;35;20174;-72
2021/05/23 16:41:24;;;;;;;3.17;1.90;;;;;;;16.23;35.70;100261.69;8056301;35;20591;-71
2021/05/23 16:46:26;;;;;;;2.30;1.70;;;;;;;17.30;34.09;100270.88;8057107;35;20153;-72
2021/05/23 16:51:30;;;;;;;3.45;1.85;;;;;;;18.13;33.86;100264.25;8056270;35;20429;-73
2021/05/23 16:56:33;;;;;;;4.15;1.60;;;;;;;17.61;33.86;100270.16;8055244;35;20158;-73
2021/05/23 17:01:36;;;;;;;3.10;1.38;;;;;;;16.76;34.50;100274.06;8038954;35;21342;-72
2021/05/23 17:06:38;;;;;;;3.67;1.55;;;;;;;16.38;35.11;100264.66;8004683;35;20152;-73
2021/05/23 17:11:42;;;;;;;2.22;1.55;;;;;;;16.18;35.48;100277.59;8004072;35;20441;-73
2021/05/23 17:16:44;;;;;;;3.60;1.70;;;;;;;15.86;36.53;100273.72;8003015;35;20264;-73
2021/05/23 17:21:47;;;;;;;3.03;1.65;;;;;;;15.52;37.56;100278.25;8004414;35;20461;-73
2021/05/23 17:26:51;;;;;;;2.10;1.58;;;;;;;14.91;39.20;100278.09;8003750;35;21939;-73
2021/05/23 17:31:56;;;;;;;4.65;1.73;;;;;;;15.48;39.22;100277.72;8013405;35;20508;-73
2021/05/23 17:36:58;;;;;;;1.83;1.58;;;;;;;15.76;38.82;100280.28;8041565;35;20251;-73
2021/05/23 17:42:02;;;;;;;3.15;1.60;;;;;;;16.80;35.85;100277.28;8027386;35;20438;-73
2021/05/23 17:47:05;;;;;;;3.15;1.80;;;;;;;16.69;36.70;100285.75;8023744;35;21310;-73
2021/05/23 17:52:08;;;;;;;5.15;1.70;;;;;;;14.75;39.54;100286.03;8041642;35;20815;-73
2021/05/23 17:57:13;;;;;;;2.42;1.50;;;;;;;14.05;41.17;100275.78;8053326;35;20202;-73
2021/05/23 18:02:16;;;;;;;2.65;1.90;;;;;;;13.80;42.25;100277.31;8034576;35;21377;-72
2021/05/23 18:07:19;;;;;;;4.68;1.98;;;;;;;14.17;42.09;100276.44;8047306;35;20193;-73
2021/05/23 18:12:23;;;;;;;1.90;1.80;;;;;;;13.90;42.06;100278.16;8018815;35;21017;-72
2021/05/23 18:17:26;;;;;;;2.40;1.70;;;;;;;13.95;42.34;100277.69;8016929;35;20598;-73
2021/05/23 18:22:28;;;;;;;1.98;1.50;;;;;;;13.88;42.27;100288.22;8031746;35;20466;-72
2021/05/23 18:27:32;;;;;;;4.60;1.65;;;;;;;13.68;42.53;100278.47;8040011;35;20242;-72
2021/05/23 18:32:35;;;;;;;4.07;1.73;;;;;;;13.63;42.53;100280.78;8027125;35;20597;-72
2021/05/23 18:37:40;;;;;;;2.35;1.65;;;;;;;13.40;43.73;100280.28;8037686;35;20485;-73
2021/05/23 18:42:44;;;;;;;1.98;1.70;;;;;;;13.37;43.99;100281.41;8044808;35;20455;-73
2021/05/23 18:47:47;;;;;;;3.42;2.03;;;;;;;13.34;43.62;100284.38;8026763;35;20474;-73
2021/05/23 18:52:49;;;;;;;3.00;2.13;;;;;;;13.39;43.03;100286.69;8003635;35;20291;-73
2021/05/23 18:57:53;;;;;;;4.43;1.85;;;;;;;13.29;44.05;100281.25;8001082;35;21267;-72
2021/05/23 19:02:55;;;;;;;2.13;1.70;;;;;;;13.30;43.83;100284.78;8014664;35;20227;-72
2021/05/23 19:07:58;;;;;;;2.63;2.08;;;;;;;13.28;43.61;100298.44;7999511;35;21229;-72
2021/05/23 19:13:03;;;;;;;3.38;1.90;;;;;;;13.13;43.50;100297.16;8008934;35;20509;-72
2021/05/23 19:18:06;;;;;;;4.38;2.17;;;;;;;13.07;44.35;100300.44;8015256;35;20191;-72
2021/05/23 19:23:09;;;;;;;4.78;2.22;;;;;;;12.95;45.20;100303.28;8001414;35;20199;-72
2021/05/23 19:28:16;;;;;;;3.83;2.83;;;;;;;13.00;46.00;100314.50;8007203;35;20836;-72
2021/05/23 19:33:18;;;;;;;3.28;2.83;;;;;;;12.97;46.54;100313.91;8007783;35;20151;-72
2021/05/23 19:38:21;;;;;;;6.20;3.35;;;;;;;12.89;46.64;100321.84;8019417;35;20433;-72
2021/05/23 19:43:26;;;;;;;5.32;3.92;;;;;;;12.85;46.93;100320.44;7992454;35;21951;-72
2021/05/23 19:48:29;;;;;;;5.18;3.40;;;;;;;12.79;47.14;100329.94;8007603;35;21279;-72
2021/05/23 19:53:32;;;;;;;6.28;3.40;;;;;;;12.71;47.96;100324.41;8007569;35;20148;-74
2021/05/23 19:58:35;;;;;;;7.47;3.22;;;;;;;12.63;48.37;100327.78;8006974;35;21982;-72
2021/05/23 20:03:37;;;;;;;5.75;3.60;;;;;;;12.63;48.70;100330.50;8053206;35;20190;-72
2021/05/23 20:08:40;;;;;;;3.75;2.88;;;;;;;12.53;49.48;100332.31;8058423;35;21131;-73
2021/05/23 20:13:43;;;;;;;7.57;2.85;;;;;;;12.46;49.57;100321.25;8069147;35;20576;-72
2021/05/23 20:18:46;;;;;;;4.22;3.03;;;;;;;12.40;49.66;100329.88;8033666;35;20166;-73
2021/05/23 20:23:49;;;;;;;5.38;2.83;;;;;;;12.36;48.82;100334.66;8003192;35;20473;-73
2021/05/23 20:28:53;;;;;;;4.05;2.60;;;;;;;12.30;49.05;100332.53;8002206;35;20506;-73
2021/05/23 20:33:56;;;;;;;4.07;2.05;;;;;;;12.24;49.30;100337.59;8018233;35;20446;-72
2021/05/23 20:38:59;;;;;;;2.60;2.10;;;;;;;12.16;49.78;100327.50;8004838;35;20429;-72
2021/05/23 20:44:03;;;;;;;6.72;3.17;;;;;;;12.12;49.39;100334.13;8030709;35;20456;-72
2021/05/23 20:49:06;;;;;;;3.40;3.08;;;;;;;12.02;50.00;100336.78;8029150;35;20195;-72
2021/05/23 20:54:12;;;;;;;6.07;3.53;;;;;;;11.88;50.58;100329.09;8052760;35;20621;-73
2021/05/23 20:59:16;;;;;;;5.97;4.28;;;;;;;11.70;51.37;100329.66;8022606;35;20284;-73
2021/05/23 21:04:20;;;;;;;10.48;4.18;;;;;;;11.55;52.25;100333.72;8000656;35;20144;-73
2021/05/23 21:09:23;;;;;;;5.90;3.75;;;;;;;11.44;52.83;100328.41;7999046;35;21116;-73
2021/05/23 21:14:27;;;;;;;6.50;3.33;;;;;;;11.28;53.80;100323.47;8004954;35;21092;-73
2021/05/23 21:19:29;;;;;;;4.18;3.72;;;;;;;11.10;54.89;100325.84;8002770;35;20159;-73
2021/05/23 21:24:34;;;;;;;4.45;3.67;;;;;;;10.95;55.39;100317.22;8004729;35;20574;-73
2021/05/23 21:29:37;;;;;;;7.93;3.13;;;;;;;10.82;55.75;100321.91;8004541;35;20175;-72
2021/05/23 21:34:40;;;;;;;4.95;3.50;;;;;;;10.74;56.32;100319.88;8011818;35;20499;-73
2021/05/23 21:39:42;;;;;;;4.88;3.35;;;;;;;10.61;56.92;100316.47;8003995;35;20247;-72
2021/05/23 21:44:46;;;;;;;7.15;3.03;;;;;;;10.54;57.20;100313.47;8004693;35;20457;-74
2021/05/23 21:49:48;;;;;;;3.92;3.17;;;;;;;10.42;57.97;100313.59;8011762;35;20185;-73
2021/05/23 21:54:51;;;;;;;5.97;3.28;;;;;;;10.25;59.02;100312.28;8019245;35;20425;-73
2021/05/23 21:59:54;;;;;;;8.32;3.83;;;;;;;10.10;59.47;100306.34;8023430;35;20672;-73
2021/05/23 22:04:58;;;;;;;8.10;4.47;;;;;;;10.01;59.84;100296.31;8019858;35;20188;-73
2021/05/23 22:10:00;;;;;;;4.78;4.00;;;;;;;9.92;60.09;100304.13;8018705;35;20652;-73
2021/05/23 22:15:07;;;;;;;7.20;4.38;;;;;;;9.84;60.71;100301.16;8017972;35;20433;-73
2021/05/23 22:20:12;;;;;;;8.07;4.30;;;;;;;9.76;60.88;100297.38;8018954;35;20463;-74
2021/05/23 22:25:16;;;;;;;6.38;4.05;;;;;;;9.67;61.17;100304.34;8036002;35;20162;-73
2021/05/23 22:30:20;;;;;;;5.68;4.32;;;;;;;9.60;61.52;100305.78;8050160;35;20656;-74
2021/05/23 22:35:24;;;;;;;6.85;3.88;;;;;;;9.51;61.08;100296.63;8053493;35;20152;-74
2021/05/23 22:40:31;;;;;;;5.85;4.38;;;;;;;9.43;61.22;100299.91;8014243;35;20187;-73
2021/05/23 22:45:36;;;;;;;6.68;3.80;;;;;;;9.39;61.08;100294.91;8021830;35;20254;-74
2021/05/23 22:50:42;;;;;;;5.35;3.42;;;;;;;9.34;61.11;100283.69;8020231;35;20198;-73
2021/05/23 22:55:49;;;;;;;4.82;3.60;;;;;;;9.29;61.17;100278.69;8018436;35;21148;-73
2021/05/23 23:00:59;;;;;;;5.90;4.53;;;;;;;9.18;61.35;100276.81;8020835;35;21997;-72
2021/05/23 23:06:01;;;;;;;4.85;3.28;;;;;;;9.12;61.79;100277.31;8023413;35;20183;-72
2021/05/23 23:11:05;;;;;;;5.40;3.55;;;;;;;9.00;61.83;100279.09;8024066;35;20633;-72
2021/05/23 23:16:09;;;;;;;4.63;3.83;;;;;;;8.99;61.82;100277.38;8024197;35;20242;-72
2021/05/23 23:21:12;;;;;;;5.63;3.65;;;;;;;8.91;62.15;100274.44;8023950;35;20627;-72
2021/05/23 23:26:16;;;;;;;6.68;3.70;;;;;;;8.89;62.16;100280.91;8014183;35;20192;-72
2021/05/23 23:31:20;;;;;;;3.63;3.30;;;;;;;8.82;62.13;100283.16;8007748;35;20191;-72
2021/05/23 23:36:23;;;;;;;4.25;3.42;;;;;;;8.77;62.24;100280.81;8007133;35;20286;-72